createdAt,value
2019-05-07T00:02:13.370Z,17.75
2019-05-07T00:04:42.774Z,15.08
2019-05-07T00:07:09.835Z,15.20
2019-05-07T00:09:36.801Z,16.32
2019-05-07T00:12:05.083Z,12.93
2019-05-07T00:14:34.619Z,16.42
2019-05-07T00:17:02.228Z,13.38
2019-05-07T00:19:32.431Z,13.58
2019-05-07T00:21:59.571Z,17.00
2019-05-07T00:24:27.225Z,16.87
2019-05-07T00:26:54.702Z,13.00
2019-05-07T00:29:22.679Z,15.23
2019-05-07T00:31:52.069Z,14.95
2019-05-07T00:34:21.989Z,16.30
2019-05-07T00:36:58.832Z,13.20
2019-05-07T00:39:47.812Z,15.45
2019-05-07T00:42:32.841Z,16.25
2019-05-07T00:45:14.298Z,13.13
2019-05-07T00:47:35.713Z,15.65
2019-05-07T00:50:07.728Z,18.98
2019-05-07T00:52:35.333Z,14.85
2019-05-07T00:55:03.083Z,16.00
2019-05-07T00:57:32.379Z,14.23
2019-05-07T01:00:02.089Z,16.27
2019-05-07T01:02:28.603Z,14.75
2019-05-07T01:04:55.808Z,12.40
2019-05-07T01:07:23.158Z,17.40
2019-05-07T01:09:52.428Z,15.28
2019-05-07T01:12:21.609Z,17.52
2019-05-07T01:14:49.358Z,16.42
2019-05-07T01:17:16.888Z,14.00
2019-05-07T01:19:44.074Z,19.23
2019-05-07T01:22:12.628Z,16.32
2019-05-07T01:24:39.972Z,19.65
2019-05-07T01:27:07.408Z,19.67
2019-05-07T01:29:34.712Z,16.12
2019-05-07T01:32:10.087Z,18.80
2019-05-07T01:34:59.395Z,18.52
2019-05-07T01:37:26.622Z,18.75
2019-05-07T01:39:53.700Z,16.70
2019-05-07T01:42:22.146Z,19.50
2019-05-07T01:44:49.394Z,19.02
2019-05-07T01:47:17.258Z,16.35
2019-05-07T01:49:46.445Z,16.82
2019-05-07T01:52:13.508Z,16.73
2019-05-07T01:54:42.566Z,17.52
2019-05-07T01:57:12.102Z,18.30
2019-05-07T01:59:39.144Z,20.40
2019-05-07T02:02:15.088Z,19.52
2019-05-07T02:05:08.731Z,21.77
2019-05-07T02:07:52.030Z,26.62
2019-05-07T02:10:42.824Z,20.10
2019-05-07T02:13:12.474Z,20.08
2019-05-07T02:15:39.947Z,18.42
2019-05-07T02:18:07.189Z,18.87
2019-05-07T02:20:34.293Z,19.90
2019-05-07T02:23:02.779Z,18.55
2019-05-07T02:25:32.789Z,22.17
2019-05-07T02:28:02.021Z,18.07
2019-05-07T02:30:29.263Z,19.75
2019-05-07T02:32:56.424Z,19.40
2019-05-07T02:35:24.060Z,20.00
2019-05-07T02:37:57.429Z,17.87
2019-05-07T02:40:36.013Z,16.52
2019-05-07T02:43:05.343Z,18.75
2019-05-07T02:45:53.506Z,19.82
2019-05-07T02:48:23.845Z,17.75
2019-05-07T02:50:56.599Z,20.08
2019-05-07T02:53:45.562Z,16.70
2019-05-07T02:56:13.175Z,21.82
2019-05-07T02:58:43.177Z,20.32
2019-05-07T03:01:09.553Z,21.93
2019-05-07T03:03:36.745Z,21.05
2019-05-07T03:06:03.865Z,17.40
2019-05-07T03:08:33.079Z,20.68
2019-05-07T03:11:03.042Z,16.97
2019-05-07T03:13:29.006Z,19.85
2019-05-07T03:15:56.566Z,18.90
2019-05-07T03:18:25.703Z,18.45
2019-05-07T03:21:03.946Z,21.40
2019-05-07T03:23:42.901Z,23.87
2019-05-07T03:26:24.166Z,23.67
2019-05-07T03:28:56.458Z,22.73
2019-05-07T03:31:49.029Z,22.85
2019-05-07T03:34:46.640Z,25.52
2019-05-07T03:37:13.509Z,22.20
2019-05-07T03:39:43.219Z,22.95
2019-05-07T03:42:12.755Z,22.90
2019-05-07T03:44:53.486Z,21.30
2019-05-07T03:47:28.595Z,24.15
2019-05-07T03:49:56.293Z,21.00
2019-05-07T03:52:37.537Z,21.77
2019-05-07T03:55:05.892Z,20.37
2019-05-07T03:57:33.643Z,22.73
2019-05-07T04:00:04.080Z,18.65
2019-05-07T04:02:32.856Z,28.17
2019-05-07T04:04:59.003Z,23.90
2019-05-07T04:07:26.094Z,22.27
2019-05-07T04:09:53.598Z,24.72
2019-05-07T04:12:23.469Z,21.65
2019-05-07T04:14:53.163Z,19.62
2019-05-07T04:17:25.617Z,19.25
2019-05-07T04:19:48.956Z,18.87
2019-05-07T04:22:17.196Z,18.52
2019-05-07T04:25:04.135Z,17.30
2019-05-07T04:27:34.319Z,13.22
2019-05-07T04:35:12.638Z,13.50
2019-05-07T04:37:42.699Z,12.10
2019-05-07T04:40:09.010Z,14.75
2019-05-07T04:42:36.479Z,10.23
2019-05-07T04:45:04.419Z,11.90
2019-05-07T04:47:42.162Z,9.53
2019-05-07T04:50:03.717Z,11.48
2019-05-07T04:52:35.209Z,10.48
2019-05-07T04:55:04.701Z,10.53
2019-05-07T04:57:32.993Z,13.45
2019-05-07T05:00:03.438Z,14.40
2019-05-07T05:02:47.432Z,11.03
2019-05-07T05:05:16.197Z,13.72
2019-05-07T05:07:44.505Z,11.43
2019-05-07T05:10:13.452Z,11.63
2019-05-07T05:12:42.821Z,10.95
2019-05-07T05:15:09.867Z,9.43
2019-05-07T05:17:48.035Z,11.80
2019-05-07T05:20:06.386Z,12.55
2019-05-07T05:22:43.301Z,10.05
2019-05-07T05:25:17.081Z,9.15
2019-05-07T05:27:44.399Z,9.63
2019-05-07T05:30:17.443Z,10.00
2019-05-07T05:32:44.851Z,9.65
2019-05-07T05:35:12.679Z,10.25
2019-05-07T05:37:39.796Z,9.90
2019-05-07T05:40:09.114Z,10.95
2019-05-07T05:42:52.455Z,9.75
2019-05-07T05:45:39.156Z,11.30
2019-05-07T05:48:08.509Z,11.33
2019-05-07T05:50:53.619Z,9.03
2019-05-07T05:53:38.563Z,12.63
2019-05-07T05:56:12.044Z,9.90
2019-05-07T05:58:52.965Z,12.35
2019-05-07T06:01:54.799Z,12.10
2019-05-07T06:04:52.666Z,12.63
2019-05-07T06:07:27.481Z,11.28
2019-05-07T06:10:03.957Z,11.90
2019-05-07T06:12:42.920Z,13.53
2019-05-07T06:15:15.440Z,14.05
2019-05-07T06:17:58.907Z,14.33
2019-05-07T06:20:48.621Z,14.15
2019-05-07T06:23:35.068Z,10.72
2019-05-07T06:26:05.079Z,13.45
2019-05-07T06:28:32.987Z,9.35
2019-05-07T06:31:02.129Z,12.75
2019-05-07T06:33:29.364Z,10.38
2019-05-07T06:35:58.363Z,14.13
2019-05-07T06:38:27.004Z,13.75
2019-05-07T06:41:06.124Z,17.07
2019-05-07T06:43:37.730Z,18.02
2019-05-07T06:46:05.316Z,13.00
2019-05-07T06:48:41.878Z,13.35
2019-05-07T06:51:03.105Z,14.80
2019-05-07T06:53:33.343Z,12.25
2019-05-07T06:56:02.897Z,14.43
2019-05-07T06:58:37.940Z,13.32
2019-05-07T07:01:24.773Z,14.13
2019-05-07T07:04:02.584Z,12.85
2019-05-07T07:06:34.024Z,13.05
2019-05-07T07:09:15.480Z,13.88
2019-05-07T07:11:55.577Z,14.18
2019-05-07T07:14:23.118Z,17.85
2019-05-07T07:16:50.235Z,14.70
2019-05-07T07:19:17.445Z,14.05
2019-05-07T07:21:48.062Z,13.83
2019-05-07T07:24:15.330Z,14.70
2019-05-07T07:26:42.570Z,16.82
2019-05-07T07:29:10.128Z,15.30
2019-05-07T07:31:42.588Z,15.15
2019-05-07T07:34:10.129Z,14.65
2019-05-07T07:37:12.840Z,11.78
2019-05-07T07:39:37.925Z,14.78
2019-05-07T07:42:07.327Z,13.05
2019-05-07T07:44:35.180Z,10.98
2019-05-07T07:47:02.631Z,14.63
2019-05-07T07:49:29.890Z,16.75
2019-05-07T07:51:57.455Z,12.78
2019-05-07T07:54:24.622Z,13.85
2019-05-07T07:57:13.932Z,10.88
2019-05-07T07:59:59.462Z,13.88
2019-05-07T08:02:42.413Z,14.03
2019-05-07T08:05:12.500Z,11.68
2019-05-07T08:07:42.623Z,15.80
2019-05-07T08:10:09.549Z,11.25
2019-05-07T08:12:36.721Z,10.30
2019-05-07T08:15:16.913Z,11.88
2019-05-07T08:17:34.172Z,13.85
2019-05-07T08:20:02.551Z,14.33
2019-05-07T08:22:29.870Z,13.15
2019-05-07T08:24:56.951Z,9.80
2019-05-07T08:27:24.798Z,10.25
2019-05-07T08:29:52.428Z,12.63
2019-05-07T08:32:32.658Z,14.35
2019-05-07T08:35:08.371Z,13.22
2019-05-07T08:37:35.549Z,10.72
2019-05-07T08:40:03.280Z,10.40
2019-05-07T08:42:32.024Z,13.75
2019-05-07T08:45:06.583Z,10.65
2019-05-07T08:47:42.535Z,13.53
2019-05-07T08:50:11.751Z,11.97
2019-05-07T08:52:38.723Z,14.35
2019-05-07T08:55:06.561Z,10.78
2019-05-07T08:57:34.393Z,11.75
2019-05-07T09:00:04.477Z,11.22
2019-05-07T09:02:32.457Z,11.18
2019-05-07T09:04:59.609Z,10.53
2019-05-07T09:07:26.862Z,9.63
2019-05-07T09:09:53.995Z,11.95
2019-05-07T09:12:22.970Z,12.30
2019-05-07T09:14:50.132Z,11.53
2019-05-07T09:17:17.298Z,11.83
2019-05-07T09:19:51.478Z,9.73
2019-05-07T09:22:13.899Z,10.43
2019-05-07T09:24:42.452Z,12.45
2019-05-07T09:27:22.280Z,13.15
2019-05-07T09:30:07.751Z,11.73
2019-05-07T09:33:02.319Z,10.88
2019-05-07T09:35:39.532Z,13.83
2019-05-07T09:38:05.646Z,12.25
2019-05-07T09:40:33.680Z,10.25
2019-05-07T09:43:02.552Z,14.65
2019-05-07T09:45:29.961Z,10.40
2019-05-07T09:47:57.549Z,11.40
2019-05-07T09:50:25.077Z,13.98
2019-05-07T09:52:52.654Z,13.80
2019-05-07T09:55:23.168Z,11.33
2019-05-07T09:57:50.053Z,10.45
2019-05-07T10:00:18.186Z,11.85
2019-05-07T10:02:45.300Z,10.60
2019-05-07T10:05:13.101Z,13.13
2019-05-07T10:07:43.430Z,17.55
2019-05-07T10:10:11.999Z,12.90
2019-05-07T10:12:44.215Z,12.98
2019-05-07T10:15:12.643Z,13.05
2019-05-07T10:17:46.769Z,12.70
2019-05-07T10:20:21.774Z,13.38
2019-05-07T10:22:43.528Z,11.68
2019-05-07T10:25:12.138Z,14.23
2019-05-07T10:27:41.789Z,11.53
2019-05-07T10:30:09.445Z,11.22
2019-05-07T10:32:37.986Z,14.73
2019-05-07T10:35:05.589Z,12.28
2019-05-07T10:37:33.140Z,13.38
2019-05-07T10:40:03.024Z,14.13
2019-05-07T10:42:32.401Z,14.63
2019-05-07T10:45:12.922Z,13.75
2019-05-07T10:47:52.947Z,14.70
2019-05-07T10:50:36.393Z,12.70
2019-05-07T10:52:58.108Z,14.58
2019-05-07T10:55:26.739Z,14.38
2019-05-07T10:57:53.980Z,13.15
2019-05-07T11:00:24.065Z,14.07
2019-05-07T11:02:51.861Z,12.00
2019-05-07T11:05:19.140Z,13.72
2019-05-07T11:07:46.044Z,12.90
2019-05-07T11:10:14.100Z,11.68
2019-05-07T11:12:42.722Z,15.32
2019-05-07T11:15:13.884Z,14.47
2019-05-07T11:17:56.198Z,13.90
2019-05-07T11:20:23.396Z,15.60
2019-05-07T11:22:52.185Z,15.10
2019-05-07T11:25:22.363Z,11.57
2019-05-07T11:27:49.661Z,14.23
2019-05-07T11:30:17.223Z,12.78
2019-05-07T11:32:44.284Z,14.68
2019-05-07T11:35:14.631Z,13.45
2019-05-07T11:37:44.144Z,12.45
2019-05-07T11:40:12.957Z,17.15
2019-05-07T11:43:05.156Z,13.50
2019-05-07T11:45:38.577Z,14.38
2019-05-07T11:48:05.586Z,14.60
2019-05-07T11:51:03.664Z,15.40
2019-05-07T11:53:24.353Z,14.70
2019-05-07T11:55:52.561Z,15.05
2019-05-07T11:58:22.010Z,16.62
2019-05-07T12:00:53.987Z,13.62
2019-05-07T12:03:22.099Z,14.60
2019-05-07T12:05:49.770Z,20.75
2019-05-07T12:08:17.164Z,14.10
2019-05-07T12:10:44.308Z,14.03
2019-05-07T12:13:12.842Z,15.63
2019-05-07T12:15:39.941Z,17.27
2019-05-07T12:18:07.017Z,14.43
2019-05-07T12:20:34.252Z,17.60
2019-05-07T12:23:02.922Z,14.40
2019-05-07T12:25:32.061Z,15.90
2019-05-07T12:28:02.149Z,13.72
2019-05-07T12:30:52.373Z,15.80
2019-05-07T12:33:38.786Z,16.65
2019-05-07T12:36:07.109Z,14.43
2019-05-07T12:38:35.270Z,16.77
2019-05-07T12:41:22.176Z,16.32
2019-05-07T12:43:52.006Z,13.30
2019-05-07T12:46:22.240Z,13.93
2019-05-07T12:48:49.695Z,13.55
2019-05-07T12:51:16.799Z,16.35
2019-05-07T12:53:47.912Z,13.90
2019-05-07T12:56:15.282Z,12.80
2019-05-07T12:58:42.340Z,13.53
2019-05-07T13:01:16.881Z,14.55
2019-05-07T13:04:12.528Z,16.97
2019-05-07T13:06:55.396Z,15.78
2019-05-07T13:09:23.079Z,13.78
2019-05-07T13:11:52.370Z,13.75
2019-05-07T13:14:19.085Z,18.77
2019-05-07T13:16:46.715Z,14.35
2019-05-07T13:19:14.906Z,14.70
2019-05-07T13:21:49.305Z,15.83
2019-05-07T13:24:14.768Z,14.93
2019-05-07T13:26:42.722Z,15.03
2019-05-07T13:29:12.757Z,16.20
2019-05-07T13:31:39.143Z,14.68
2019-05-07T13:34:06.675Z,14.50
2019-05-07T13:36:35.892Z,16.52
2019-05-07T13:39:15.168Z,17.37
2019-05-07T13:42:07.818Z,13.83
2019-05-07T13:45:06.272Z,14.68
2019-05-07T13:47:35.832Z,14.75
2019-05-07T13:50:03.638Z,14.95
2019-05-07T13:52:32.932Z,24.37
2019-05-07T13:54:59.808Z,15.80
2019-05-07T13:57:27.469Z,15.15
2019-05-07T13:59:55.033Z,15.88
2019-05-07T14:02:23.983Z,15.93
2019-05-07T14:04:52.630Z,15.83
2019-05-07T14:07:21.780Z,17.73
2019-05-07T14:09:49.997Z,13.50
2019-05-07T14:12:17.632Z,17.87
2019-05-07T14:14:45.195Z,16.23
2019-05-07T14:17:12.862Z,17.55
2019-05-07T14:19:42.128Z,15.38
2019-05-07T14:22:16.395Z,13.75
2019-05-07T14:24:38.790Z,17.27
2019-05-07T14:27:06.083Z,14.30
2019-05-07T14:29:33.716Z,16.17
2019-05-07T14:32:15.468Z,15.28
2019-05-07T14:35:02.143Z,16.27
2019-05-07T14:37:38.628Z,18.90
2019-05-07T14:40:06.424Z,15.43
2019-05-07T14:42:39.058Z,14.45
2019-05-07T14:45:06.251Z,14.47
2019-05-07T14:47:33.276Z,15.68
2019-05-07T14:50:02.199Z,15.68
2019-05-07T14:52:33.185Z,16.87
2019-05-07T14:54:58.232Z,17.37
2019-05-07T14:57:25.347Z,14.95
2019-05-07T14:59:53.459Z,16.23
2019-05-07T15:02:20.589Z,16.62
2019-05-07T15:04:47.760Z,14.90
2019-05-07T15:07:14.975Z,16.80
2019-05-07T15:09:42.627Z,16.52
2019-05-07T15:12:12.461Z,14.83
2019-05-07T15:14:39.247Z,16.85
2019-05-07T15:17:17.061Z,21.73
2019-05-07T15:19:44.929Z,18.07
2019-05-07T15:22:45.456Z,14.78
2019-05-07T15:24:59.712Z,16.27
2019-05-07T15:27:27.016Z,19.55
2019-05-07T15:29:54.039Z,15.60
2019-05-07T15:32:21.835Z,16.15
2019-05-07T15:34:52.254Z,15.20
2019-05-07T15:37:19.202Z,21.48
2019-05-07T15:39:46.318Z,19.05
2019-05-07T15:44:39.704Z,14.30
2019-05-07T15:47:11.776Z,15.68
2019-05-07T15:49:39.033Z,13.80
2019-05-07T15:52:12.551Z,15.18
2019-05-07T15:54:39.802Z,15.00
2019-05-07T15:57:09.427Z,15.48
2019-05-07T15:59:36.929Z,15.87
2019-05-07T16:02:19.827Z,16.65
2019-05-07T16:04:47.291Z,14.55
2019-05-07T16:07:15.322Z,12.82
2019-05-07T16:09:43.438Z,17.37
2019-05-07T16:12:11.880Z,14.95
2019-05-07T16:14:41.855Z,15.58
2019-05-07T16:17:15.622Z,14.07
2019-05-07T16:19:43.041Z,15.58
2019-05-07T16:22:13.915Z,18.45
2019-05-07T16:24:41.207Z,20.10
2019-05-07T16:27:08.781Z,15.55
2019-05-07T16:29:36.653Z,17.15
2019-05-07T16:32:03.777Z,13.48
2019-05-07T16:34:32.617Z,14.18
2019-05-07T16:37:03.529Z,14.13
2019-05-07T16:39:29.161Z,16.73
2019-05-07T16:41:56.384Z,14.80
2019-05-07T16:44:23.536Z,14.95
2019-05-07T16:46:50.572Z,14.30
2019-05-07T16:49:17.764Z,14.23
2019-05-07T16:51:44.957Z,18.10
2019-05-07T16:54:12.382Z,13.13
2019-05-07T16:57:07.622Z,14.35
2019-05-07T16:59:55.697Z,13.68
2019-05-07T17:02:43.128Z,14.75
2019-05-07T17:05:19.532Z,13.95
2019-05-07T17:08:09.411Z,14.47
2019-05-07T17:10:36.414Z,14.20
2019-05-07T17:13:03.534Z,13.25
2019-05-07T17:15:30.836Z,15.55
2019-05-07T17:18:02.803Z,12.33
2019-05-07T17:20:32.502Z,11.57
2019-05-07T17:22:59.535Z,14.75
2019-05-07T17:25:38.658Z,14.87
2019-05-07T17:28:09.612Z,14.15
2019-05-07T17:30:37.932Z,16.50
2019-05-07T17:33:06.293Z,13.95
2019-05-07T17:35:34.459Z,14.07
2019-05-07T17:38:07.311Z,15.08
2019-05-07T17:40:32.085Z,15.88
2019-05-07T17:42:59.228Z,15.20
2019-05-07T17:45:26.270Z,13.13
2019-05-07T17:47:53.575Z,17.12
2019-05-07T17:50:26.978Z,13.50
2019-05-07T17:52:56.287Z,13.55
2019-05-07T17:55:23.397Z,16.55
2019-05-07T17:57:52.512Z,19.02
2019-05-07T18:00:22.071Z,14.53
2019-05-07T18:03:08.616Z,13.15
2019-05-07T18:05:35.616Z,12.78
2019-05-07T18:08:03.152Z,14.35
2019-05-07T18:10:31.884Z,17.95
2019-05-07T18:12:59.239Z,15.05
2019-05-07T18:15:26.258Z,15.68
2019-05-07T18:18:03.693Z,18.10
2019-05-07T18:20:32.819Z,15.95
2019-05-07T18:23:02.498Z,16.42
2019-05-07T18:25:29.607Z,16.23
2019-05-07T18:27:56.659Z,14.33
2019-05-07T18:30:23.837Z,17.73
2019-05-07T18:33:02.436Z,19.37
2019-05-07T18:35:32.154Z,15.75
2019-05-07T18:37:59.400Z,15.55
2019-05-07T18:40:26.570Z,15.78
2019-05-07T18:42:53.736Z,13.83
2019-05-07T18:45:22.331Z,14.35
2019-05-07T18:47:51.573Z,15.53
2019-05-07T18:50:19.849Z,13.98
2019-05-07T18:52:47.259Z,13.62
2019-05-07T18:55:14.713Z,16.52
2019-05-07T18:57:42.857Z,14.90
2019-05-07T19:00:12.789Z,17.02
2019-05-07T19:02:42.619Z,16.30
2019-05-07T19:05:10.622Z,17.90
2019-05-07T19:07:37.793Z,15.08
2019-05-07T19:10:05.164Z,15.40
2019-05-07T19:12:33.534Z,16.50
2019-05-07T19:15:02.920Z,18.35
2019-05-07T19:17:29.802Z,17.20
2019-05-07T19:19:56.932Z,17.37
2019-05-07T19:22:24.062Z,15.88
2019-05-07T19:24:52.689Z,18.05
2019-05-07T19:27:21.905Z,14.63
2019-05-07T19:29:50.139Z,16.95
2019-05-07T19:32:17.703Z,17.07
2019-05-07T19:34:45.580Z,15.13
2019-05-07T19:37:12.986Z,17.57
2019-05-07T19:39:40.196Z,18.52
2019-05-07T19:42:07.506Z,19.48
2019-05-07T19:44:34.669Z,19.37
2019-05-07T19:47:02.070Z,19.07
2019-05-07T19:49:29.598Z,20.82
2019-05-07T19:51:57.340Z,20.30
2019-05-07T19:54:24.708Z,20.92
2019-05-07T19:56:52.024Z,20.57
2019-05-07T19:59:19.337Z,19.42
2019-05-07T20:01:51.811Z,18.48
2019-05-07T20:04:19.456Z,16.95
2019-05-07T20:06:46.929Z,21.62
2019-05-07T20:09:16.166Z,17.45
2019-05-07T20:11:48.523Z,20.27
2019-05-07T20:14:15.717Z,19.98
2019-05-07T20:16:42.874Z,20.82
2019-05-07T20:19:11.872Z,21.23
2019-05-07T20:21:39.207Z,20.65
2019-05-07T20:24:06.776Z,19.85
2019-05-07T20:26:34.252Z,18.12
2019-05-07T20:29:03.054Z,19.70
2019-05-07T20:31:30.282Z,20.43
2019-05-07T20:33:57.416Z,18.23
2019-05-07T20:36:24.596Z,19.00
2019-05-07T20:38:52.262Z,19.98
2019-05-07T20:41:19.878Z,16.87
2019-05-07T20:43:46.953Z,18.50
2019-05-07T20:46:13.951Z,20.40
2019-05-07T20:48:42.303Z,21.12
2019-05-07T20:51:12.194Z,20.82
2019-05-07T20:54:03.965Z,23.27
2019-05-07T20:56:33.577Z,22.20
2019-05-07T20:59:02.962Z,21.20
2019-05-07T21:01:29.822Z,19.92
2019-05-07T21:03:58.343Z,20.20
2019-05-07T21:06:25.623Z,25.45
2019-05-07T21:08:52.836Z,25.57
2019-05-07T21:11:22.555Z,23.57
2019-05-07T21:13:51.800Z,26.25
2019-05-07T21:16:18.567Z,23.92
2019-05-07T21:18:46.254Z,25.45
2019-05-07T21:21:13.885Z,19.80
2019-05-07T21:23:43.385Z,24.18
2019-05-07T21:26:13.097Z,21.17
2019-05-07T21:28:39.968Z,23.47
2019-05-07T21:31:07.092Z,21.02
2019-05-07T21:33:34.245Z,19.50
2019-05-07T21:36:02.848Z,21.73
2019-05-07T21:38:30.114Z,18.25
2019-05-07T21:40:57.772Z,19.85
2019-05-07T21:43:26.692Z,19.55
2019-05-07T21:45:56.366Z,21.62
2019-05-07T21:48:23.665Z,21.23
2019-05-07T21:50:51.941Z,25.00
2019-05-07T21:53:25.068Z,20.95
2019-05-07T21:56:05.631Z,21.95
2019-05-07T21:58:42.201Z,22.62
2019-05-07T22:01:12.944Z,23.10
2019-05-07T22:06:09.608Z,22.52
2019-05-07T22:08:37.141Z,26.15
2019-05-07T22:11:04.647Z,21.05
2019-05-07T22:13:33.001Z,24.20
2019-05-07T22:16:02.495Z,24.23
2019-05-07T22:18:29.373Z,21.33
2019-05-07T22:20:57.139Z,22.00
2019-05-07T22:23:24.796Z,20.30
2019-05-07T22:25:52.103Z,25.88
2019-05-07T22:28:19.584Z,27.55
2019-05-07T22:30:55.272Z,21.80
2019-05-07T22:33:31.934Z,22.30
2019-05-07T22:36:01.704Z,22.13
2019-05-07T22:38:28.797Z,26.40
2019-05-07T22:40:57.567Z,22.60
2019-05-07T22:43:25.597Z,22.13
2019-05-07T22:45:53.569Z,25.48
2019-05-07T22:48:22.816Z,23.80
2019-05-07T22:50:51.815Z,24.05
2019-05-07T22:53:19.021Z,22.65
2019-05-07T22:55:46.147Z,27.37
2019-05-07T22:58:19.374Z,24.12
2019-05-07T23:00:50.201Z,25.48
2019-05-07T23:03:17.272Z,26.23
2019-05-07T23:05:45.122Z,24.23
2019-05-07T23:08:12.807Z,21.05
2019-05-07T23:10:39.971Z,24.55
2019-05-07T23:13:07.876Z,28.55
2019-05-07T23:15:35.104Z,24.40
2019-05-07T23:18:04.454Z,24.65
2019-05-07T23:20:32.013Z,26.70
2019-05-07T23:22:59.270Z,24.65
2019-05-07T23:25:26.595Z,25.52
2019-05-07T23:27:53.785Z,21.68
2019-05-07T23:30:22.346Z,26.10
2019-05-07T23:32:49.636Z,24.18
2019-05-07T23:35:16.864Z,27.42
2019-05-07T23:37:44.247Z,26.07
2019-05-07T23:40:18.159Z,26.80
2019-05-07T23:42:46.145Z,28.32
2019-05-07T23:45:13.713Z,24.95
2019-05-07T23:47:44.405Z,28.23
2019-05-07T23:50:09.512Z,27.73
2019-05-07T23:52:36.704Z,25.85
2019-05-07T23:55:04.653Z,31.05
2019-05-07T23:57:32.601Z,26.42
